createdAt,value
2019-01-09T00:00:01.649Z,3.9
2019-01-09T00:05:01.812Z,3.8
2019-01-09T00:10:01.774Z,3.8
2019-01-09T00:15:02.130Z,3.8
2019-01-09T00:20:01.975Z,3.8
2019-01-09T00:25:02.258Z,3.8
2019-01-09T00:30:01.207Z,3.8
2019-01-09T00:35:01.434Z,3.8
2019-01-09T00:40:01.661Z,3.7
2019-01-09T00:45:01.861Z,3.7
2019-01-09T00:50:02.051Z,3.6
2019-01-09T00:55:01.783Z,3.5
2019-01-09T01:00:01.965Z,3.5
2019-01-09T01:05:01.745Z,3.4
2019-01-09T01:10:01.582Z,3.3
2019-01-09T01:15:01.946Z,3.1
2019-01-09T01:20:01.587Z,3
2019-01-09T01:25:01.623Z,3
2019-01-09T01:30:02.060Z,3
2019-01-09T01:35:01.575Z,3
2019-01-09T01:40:01.809Z,3
2019-01-09T01:45:01.689Z,2.9
2019-01-09T01:50:01.724Z,2.9
2019-01-09T01:55:01.243Z,3
2019-01-09T02:00:01.374Z,3
2019-01-09T02:05:02.171Z,3.1
2019-01-09T02:10:02.043Z,3.2
2019-01-09T02:15:01.447Z,3.2
2019-01-09T02:20:01.439Z,3.3
2019-01-09T02:25:01.464Z,3.4
2019-01-09T02:30:01.415Z,3.4
2019-01-09T02:35:01.864Z,3.5
2019-01-09T02:40:02.134Z,3.5
2019-01-09T02:45:01.745Z,3.6
2019-01-09T02:50:01.515Z,3.6
2019-01-09T02:55:01.282Z,3.6
2019-01-09T03:00:01.844Z,3.7
2019-01-09T03:05:01.263Z,3.7
2019-01-09T03:10:02.117Z,3.7
2019-01-09T03:15:01.582Z,3.8
2019-01-09T03:20:01.690Z,3.8
2019-01-09T03:25:01.231Z,3.7
2019-01-09T03:30:02.119Z,3.7
2019-01-09T03:35:01.606Z,3.6
2019-01-09T03:40:01.773Z,3.6
2019-01-09T03:45:02.143Z,3.6
2019-01-09T03:50:01.984Z,3.7
2019-01-09T03:55:01.801Z,3.7
2019-01-09T04:00:01.991Z,3.7
2019-01-09T04:05:01.767Z,3.6
2019-01-09T04:10:01.903Z,3.5
2019-01-09T04:15:01.390Z,3.4
2019-01-09T04:20:01.907Z,3.3
2019-01-09T04:25:01.570Z,3.3
2019-01-09T04:30:01.432Z,3.3
2019-01-09T04:35:01.925Z,3.2
2019-01-09T04:40:02.408Z,3.2
2019-01-09T04:45:01.918Z,3.2
2019-01-09T04:50:01.300Z,3.2
2019-01-09T04:55:01.542Z,3.2
2019-01-09T05:00:01.774Z,3.2
2019-01-09T05:05:01.472Z,3.2
2019-01-09T05:10:01.432Z,3.2
2019-01-09T05:15:02.106Z,3.2
2019-01-09T05:20:02.038Z,3.2
2019-01-09T05:25:01.446Z,3.1
2019-01-09T05:30:01.206Z,3
2019-01-09T05:35:01.836Z,3
2019-01-09T05:40:01.816Z,2.9
2019-01-09T05:45:01.651Z,2.9
2019-01-09T05:50:02.015Z,2.8
2019-01-09T05:55:01.869Z,2.8
2019-01-09T06:00:01.304Z,2.8
2019-01-09T06:05:01.697Z,2.8
2019-01-09T06:10:02.093Z,2.8
2019-01-09T06:15:01.927Z,2.9
2019-01-09T06:20:02.150Z,3
2019-01-09T06:25:01.906Z,3
2019-01-09T06:30:01.382Z,3
2019-01-09T06:35:01.889Z,3
2019-01-09T06:40:02.012Z,3
2019-01-09T06:45:02.056Z,3
2019-01-09T06:50:02.016Z,2.9
2019-01-09T06:55:01.863Z,2.8
2019-01-09T07:00:02.121Z,2.8
2019-01-09T07:05:01.812Z,2.7
2019-01-09T07:10:02.046Z,2.8
2019-01-09T07:15:01.469Z,2.8
2019-01-09T07:20:01.642Z,2.8
2019-01-09T07:25:01.534Z,2.8
2019-01-09T07:30:01.902Z,2.8
2019-01-09T07:35:01.663Z,2.8
2019-01-09T07:40:01.329Z,2.9
2019-01-09T07:45:02.060Z,3
2019-01-09T07:50:02.269Z,3.1
2019-01-09T07:55:01.558Z,3.2
2019-01-09T08:00:01.875Z,3.2
2019-01-09T08:05:01.917Z,3.2
2019-01-09T08:10:01.495Z,3.3
2019-01-09T08:15:01.690Z,3.3
2019-01-09T08:20:01.377Z,3.3
2019-01-09T08:25:01.605Z,3.3
2019-01-09T08:30:01.928Z,3.4
2019-01-09T08:35:02.077Z,3.3
2019-01-09T08:40:01.806Z,3.2
2019-01-09T08:45:01.759Z,3.2
2019-01-09T08:50:02.016Z,3.3
2019-01-09T08:55:01.859Z,3.4
2019-01-09T09:00:01.579Z,3.5
2019-01-09T09:05:02.059Z,3.5
2019-01-09T09:10:02.077Z,3.6
2019-01-09T09:15:02.020Z,3.6
2019-01-09T09:20:01.734Z,3.6
2019-01-09T09:25:02.115Z,3.6
2019-01-09T09:30:02.049Z,3.7
2019-01-09T09:35:01.415Z,3.7
2019-01-09T09:40:01.528Z,3.8
2019-01-09T09:45:01.481Z,4
2019-01-09T09:50:01.679Z,4
2019-01-09T09:55:02.049Z,4
2019-01-09T10:00:01.697Z,4.1
2019-01-09T10:05:01.474Z,4.1
2019-01-09T10:10:02.106Z,4
2019-01-09T10:15:01.783Z,3.8
2019-01-09T10:20:01.787Z,3.8
2019-01-09T10:25:02.133Z,3.7
2019-01-09T10:30:01.566Z,3.7
2019-01-09T10:35:01.771Z,3.8
2019-01-09T10:40:01.803Z,3.8
2019-01-09T10:45:01.472Z,3.8
2019-01-09T10:50:01.641Z,3.7
2019-01-09T10:55:02.066Z,3.8
2019-01-09T11:00:01.530Z,3.9
2019-01-09T11:05:02.265Z,3.9
2019-01-09T11:10:01.204Z,3.9
2019-01-09T11:15:01.699Z,3.9
2019-01-09T11:20:01.425Z,3.9
2019-01-09T11:25:02.048Z,4
2019-01-09T11:30:01.994Z,4
2019-01-09T11:35:01.444Z,4
2019-01-09T11:40:01.414Z,4
2019-01-09T11:45:01.660Z,4
2019-01-09T11:50:01.615Z,4.1
2019-01-09T11:55:01.582Z,4.1
2019-01-09T12:00:01.209Z,4.1
2019-01-09T12:05:01.957Z,4.1
2019-01-09T12:10:01.719Z,4.1
2019-01-09T12:15:01.338Z,4.1
2019-01-09T12:20:01.185Z,4
2019-01-09T12:25:01.734Z,4
2019-01-09T12:30:02.031Z,4
2019-01-09T12:35:01.471Z,4
2019-01-09T12:40:01.444Z,3.9
2019-01-09T12:45:01.987Z,4
2019-01-09T12:50:02.018Z,4
2019-01-09T12:55:01.855Z,4
2019-01-09T13:00:01.463Z,4
2019-01-09T13:05:01.569Z,4
2019-01-09T13:10:01.557Z,4
2019-01-09T13:15:01.911Z,4
2019-01-09T13:20:01.586Z,4
2019-01-09T13:25:02.313Z,4
2019-01-09T13:30:01.518Z,4.1
2019-01-09T13:35:01.798Z,4
2019-01-09T13:40:01.763Z,4
2019-01-09T13:45:01.444Z,4
2019-01-09T13:50:01.438Z,4
2019-01-09T13:55:01.243Z,4
2019-01-09T14:00:01.515Z,4
2019-01-09T14:05:03.684Z,4
2019-01-09T14:10:01.507Z,4
2019-01-09T14:15:01.681Z,4
2019-01-09T14:20:02.000Z,3.9
2019-01-09T14:25:01.902Z,3.9
2019-01-09T14:30:01.586Z,3.9
2019-01-09T14:35:01.140Z,3.9
2019-01-09T14:40:02.112Z,3.8
2019-01-09T14:45:01.358Z,3.8
2019-01-09T14:50:01.512Z,3.8
2019-01-09T14:55:02.123Z,3.8
2019-01-09T15:00:01.468Z,3.8
2019-01-09T15:05:01.496Z,3.7
2019-01-09T15:10:01.342Z,3.7
2019-01-09T15:15:01.280Z,3.6
2019-01-09T15:20:01.962Z,3.6
2019-01-09T15:25:01.277Z,3.6
2019-01-09T15:30:01.782Z,3.6
2019-01-09T15:35:01.427Z,3.5
2019-01-09T15:40:05.802Z,3.6
2019-01-09T15:45:01.826Z,3.6
2019-01-09T15:50:01.591Z,3.6
2019-01-09T15:55:01.940Z,3.6
2019-01-09T16:00:01.328Z,3.6
2019-01-09T16:05:01.787Z,3.6
2019-01-09T16:10:01.773Z,3.6
2019-01-09T16:15:01.686Z,3.5
2019-01-09T16:20:01.652Z,3.5
2019-01-09T16:25:01.183Z,3.4
2019-01-09T16:30:01.489Z,3.5
2019-01-09T16:35:01.796Z,3.4
2019-01-09T16:40:01.435Z,3.4
2019-01-09T16:45:02.011Z,3.4
2019-01-09T16:50:02.257Z,3.4
2019-01-09T16:55:01.285Z,3.4
2019-01-09T17:00:01.624Z,3.5
2019-01-09T17:05:01.875Z,3.4
2019-01-09T17:10:02.210Z,3.4
2019-01-09T17:15:02.111Z,3.5
2019-01-09T17:20:01.743Z,3.4
2019-01-09T17:25:01.692Z,3.4
2019-01-09T17:30:02.168Z,3.4
2019-01-09T17:35:01.625Z,3.4
2019-01-09T17:40:01.367Z,3.4
2019-01-09T17:45:02.047Z,3.4
2019-01-09T17:50:02.403Z,3.4
2019-01-09T17:55:01.497Z,3.3
2019-01-09T18:00:01.964Z,3.3
2019-01-09T18:05:01.701Z,3.3
2019-01-09T18:10:02.353Z,3.3
2019-01-09T18:15:01.600Z,3.3
2019-01-09T18:20:02.119Z,3.3
2019-01-09T18:25:01.272Z,3.3
2019-01-09T18:30:01.962Z,3.3
2019-01-09T18:35:02.104Z,3.3
2019-01-09T18:40:01.994Z,3.3
2019-01-09T18:45:01.449Z,3.3
2019-01-09T18:50:01.639Z,3.2
2019-01-09T18:55:01.141Z,3.1
2019-01-09T19:00:02.001Z,3.1
2019-01-09T19:05:02.108Z,3
2019-01-09T19:10:01.809Z,3
2019-01-09T19:15:02.002Z,2.8
2019-01-09T19:20:02.248Z,2.7
2019-01-09T19:25:02.012Z,2.6
2019-01-09T19:30:01.691Z,2.6
2019-01-09T19:35:01.441Z,2.5
2019-01-09T19:40:01.702Z,2.4
2019-01-09T19:45:01.653Z,2.4
2019-01-09T19:50:01.305Z,2.2
2019-01-09T19:55:01.593Z,2.2
2019-01-09T20:00:01.955Z,2.1
2019-01-09T20:05:01.627Z,2.1
2019-01-09T20:10:01.926Z,2.1
2019-01-09T20:15:01.727Z,2
2019-01-09T20:20:01.183Z,2
2019-01-09T20:25:02.288Z,2
2019-01-09T20:30:01.668Z,2
2019-01-09T20:35:01.583Z,1.9
2019-01-09T20:40:01.396Z,1.9
2019-01-09T20:45:02.055Z,2
2019-01-09T20:50:01.942Z,1.9
2019-01-09T20:55:01.393Z,1.9
2019-01-09T21:00:02.207Z,1.9
2019-01-09T21:05:01.737Z,1.9
2019-01-09T21:10:01.743Z,1.8
2019-01-09T21:15:01.263Z,1.8
2019-01-09T21:20:01.377Z,1.8
2019-01-09T21:25:01.820Z,1.8
2019-01-09T21:30:01.231Z,1.8
2019-01-09T21:35:01.774Z,1.8
2019-01-09T21:40:02.139Z,1.8
2019-01-09T21:45:01.499Z,1.9
2019-01-09T21:50:01.794Z,1.9
2019-01-09T21:55:01.494Z,1.9
2019-01-09T22:00:01.992Z,1.9
2019-01-09T22:05:02.144Z,1.9
2019-01-09T22:10:01.725Z,2
2019-01-09T22:15:01.397Z,2
2019-01-09T22:20:01.472Z,2
2019-01-09T22:25:01.867Z,2
2019-01-09T22:30:01.152Z,2.1
2019-01-09T22:35:02.088Z,2.1
2019-01-09T22:40:01.170Z,2.1
2019-01-09T22:45:01.694Z,2.1
2019-01-09T22:50:01.647Z,2
2019-01-09T22:55:01.930Z,2
2019-01-09T23:00:01.612Z,2
2019-01-09T23:05:02.112Z,2.1
2019-01-09T23:10:01.836Z,2.1
2019-01-09T23:15:02.057Z,2.1
2019-01-09T23:20:01.724Z,2.1
2019-01-09T23:25:01.620Z,2.1
2019-01-09T23:30:01.388Z,2.1
2019-01-09T23:35:01.343Z,2.2
2019-01-09T23:40:01.184Z,2.2
2019-01-09T23:45:01.978Z,2.2
2019-01-09T23:50:02.080Z,2.2
2019-01-09T23:55:01.926Z,2.2
